createdAt,value
2024-02-10T00:00:58.626Z,6.30
2024-02-10T00:01:59.054Z,3.50
2024-02-10T00:02:59.176Z,2.90
2024-02-10T00:03:59.505Z,2.80
2024-02-10T00:04:59.781Z,2.80
2024-02-10T00:06:00.093Z,2.80
2024-02-10T00:07:00.378Z,2.80
2024-02-10T00:08:00.729Z,2.60
2024-02-10T00:09:01.021Z,2.60
2024-02-10T00:10:01.143Z,2.60
2024-02-10T00:11:01.604Z,2.60
2024-02-10T00:12:01.855Z,2.60
2024-02-10T00:13:02.238Z,2.40
2024-02-10T00:14:02.526Z,2.40
2024-02-10T00:15:02.659Z,2.70
2024-02-10T00:16:03.003Z,2.30
2024-02-10T00:17:03.380Z,2.50
2024-02-10T00:18:03.528Z,2.30
2024-02-10T00:19:03.822Z,2.60
2024-02-10T00:20:04.202Z,2.40
2024-02-10T00:21:04.321Z,2.40
2024-02-10T00:22:04.515Z,2.40
2024-02-10T00:23:04.859Z,2.40
2024-02-10T00:24:05.146Z,2.60
2024-02-10T00:25:05.522Z,2.40
2024-02-10T00:26:06.303Z,2.50
2024-02-10T00:27:06.120Z,2.50
2024-02-10T00:28:06.301Z,2.70
2024-02-10T00:29:06.681Z,7.80
2024-02-10T00:30:06.884Z,3.10
2024-02-10T00:31:07.188Z,4.10
2024-02-10T00:32:07.424Z,2.70
2024-02-10T00:33:07.881Z,2.80
2024-02-10T00:34:08.016Z,3.20
2024-02-10T00:35:08.436Z,3.20
2024-02-10T00:36:08.530Z,3.10
2024-02-10T00:37:08.859Z,3.20
2024-02-10T00:38:09.090Z,3.10
2024-02-10T00:39:09.485Z,2.90
2024-02-10T00:40:09.611Z,3.10
2024-02-10T00:41:09.910Z,3.30
2024-02-10T00:42:10.128Z,3.10
2024-02-10T00:43:10.458Z,2.90
2024-02-10T00:44:10.684Z,2.80
2024-02-10T00:45:10.901Z,2.90
2024-02-10T00:46:11.188Z,2.80
2024-02-10T00:47:11.422Z,3.20
2024-02-10T00:48:11.769Z,3.00
2024-02-10T00:49:12.064Z,3.10
2024-02-10T00:50:12.154Z,3.00
2024-02-10T00:51:12.475Z,2.90
2024-02-10T00:52:12.730Z,3.10
2024-02-10T00:53:13.001Z,3.10
2024-02-10T00:54:13.256Z,3.40
2024-02-10T00:55:13.513Z,3.30
2024-02-10T00:56:13.815Z,2.90
2024-02-10T00:57:14.161Z,3.20
2024-02-10T00:58:14.340Z,3.10
2024-02-10T00:59:14.672Z,3.10
2024-02-10T01:00:15.034Z,3.50
2024-02-10T01:01:15.431Z,3.10
2024-02-10T01:02:15.623Z,3.30
2024-02-10T01:03:15.822Z,3.10
2024-02-10T01:04:16.180Z,3.40
2024-02-10T01:05:16.728Z,3.40
2024-02-10T01:06:16.891Z,3.50
2024-02-10T01:07:17.161Z,3.30
2024-02-10T01:08:17.364Z,14.50
2024-02-10T01:09:17.659Z,10.30
2024-02-10T01:10:17.902Z,4.40
2024-02-10T01:11:18.235Z,3.80
2024-02-10T01:12:18.599Z,3.70
2024-02-10T01:13:18.986Z,3.20
2024-02-10T01:14:19.146Z,3.20
2024-02-10T01:15:19.456Z,3.00
2024-02-10T01:16:20.101Z,3.30
2024-02-10T01:17:20.014Z,3.20
2024-02-10T01:18:20.478Z,3.20
2024-02-10T01:19:20.615Z,3.30
2024-02-10T01:20:20.917Z,3.10
2024-02-10T01:21:21.274Z,3.40
2024-02-10T01:22:21.479Z,3.10
2024-02-10T01:23:21.767Z,3.30
2024-02-10T01:24:22.018Z,3.40
2024-02-10T01:25:22.378Z,3.40
2024-02-10T01:26:22.616Z,3.20
2024-02-10T01:27:22.860Z,3.40
2024-02-10T01:28:23.204Z,3.50
2024-02-10T01:29:23.462Z,3.40
2024-02-10T01:30:23.665Z,3.50
2024-02-10T01:31:23.957Z,3.20
2024-02-10T01:32:24.226Z,3.60
2024-02-10T01:33:24.555Z,3.40
2024-02-10T01:34:25.241Z,3.40
2024-02-10T01:35:25.024Z,3.50
2024-02-10T01:36:25.226Z,3.90
2024-02-10T01:37:25.536Z,4.10
2024-02-10T01:38:25.710Z,3.90
2024-02-10T01:39:26.496Z,5.70
2024-02-10T01:40:26.383Z,3.80
2024-02-10T01:41:26.636Z,3.60
2024-02-10T01:42:26.940Z,3.60
2024-02-10T01:43:27.229Z,3.70
2024-02-10T01:44:27.568Z,3.80
2024-02-10T01:45:27.843Z,3.80
2024-02-10T01:46:28.146Z,4.20
2024-02-10T01:47:28.552Z,4.00
2024-02-10T01:48:29.780Z,3.90
2024-02-10T01:49:29.196Z,3.60
2024-02-10T01:50:29.397Z,3.80
2024-02-10T01:51:29.678Z,3.40
2024-02-10T01:52:29.970Z,3.30
2024-02-10T01:53:30.213Z,3.70
2024-02-10T01:54:30.511Z,3.70
2024-02-10T01:55:33.079Z,3.60
2024-02-10T01:56:31.176Z,4.00
2024-02-10T01:57:31.401Z,4.00
2024-02-10T01:58:31.660Z,4.30
2024-02-10T01:59:31.945Z,4.30
2024-02-10T02:00:32.287Z,4.50
2024-02-10T02:01:32.486Z,4.20
2024-02-10T02:02:32.719Z,4.40
2024-02-10T02:03:32.990Z,4.60
2024-02-10T02:04:33.280Z,4.60
2024-02-10T02:05:33.498Z,4.60
2024-02-10T02:06:33.776Z,4.60
2024-02-10T02:07:34.160Z,4.70
2024-02-10T02:08:34.307Z,4.50
2024-02-10T02:09:34.563Z,4.40
2024-02-10T02:10:34.865Z,4.40
2024-02-10T02:11:35.082Z,4.20
2024-02-10T02:12:35.259Z,4.60
2024-02-10T02:13:35.548Z,4.40
2024-02-10T02:14:35.766Z,4.30
2024-02-10T02:15:36.500Z,4.40
2024-02-10T02:16:36.388Z,4.20
2024-02-10T02:17:36.655Z,4.70
2024-02-10T02:18:37.000Z,4.40
2024-02-10T02:19:37.268Z,4.50
2024-02-10T02:20:37.610Z,4.60
2024-02-10T02:21:37.937Z,4.60
2024-02-10T02:22:38.193Z,4.60
2024-02-10T02:23:38.491Z,4.60
2024-02-10T02:24:38.789Z,4.70
2024-02-10T02:25:39.152Z,6.60
2024-02-10T02:26:39.431Z,5.50
2024-02-10T02:27:39.626Z,4.90
2024-02-10T02:28:40.059Z,4.60
2024-02-10T02:29:40.236Z,6.00
2024-02-10T02:30:40.974Z,6.70
2024-02-10T02:31:40.846Z,5.50
2024-02-10T02:32:41.134Z,5.50
2024-02-10T02:33:41.457Z,5.40
2024-02-10T02:34:41.800Z,5.50
2024-02-10T02:35:42.486Z,6.10
2024-02-10T02:36:42.263Z,5.30
2024-02-10T02:37:43.024Z,5.20
2024-02-10T02:38:42.745Z,5.50
2024-02-10T02:39:43.084Z,5.30
2024-02-10T02:40:43.360Z,5.50
2024-02-10T02:41:43.590Z,5.50
2024-02-10T02:42:43.850Z,5.90
2024-02-10T02:43:44.146Z,5.50
2024-02-10T02:44:44.381Z,5.60
2024-02-10T02:45:44.807Z,5.90
2024-02-10T02:46:44.950Z,5.20
2024-02-10T02:47:45.267Z,5.90
2024-02-10T02:48:45.480Z,5.90
2024-02-10T02:49:45.848Z,6.00
2024-02-10T02:50:46.116Z,6.00
2024-02-10T02:51:46.426Z,5.90
2024-02-10T02:52:46.688Z,5.70
2024-02-10T02:53:46.936Z,5.70
2024-02-10T02:54:47.308Z,5.90
2024-02-10T02:55:47.979Z,5.50
2024-02-10T02:56:47.840Z,5.70
2024-02-10T02:57:48.206Z,5.60
2024-02-10T02:58:48.481Z,5.30
2024-02-10T02:59:48.729Z,5.40
2024-02-10T03:00:49.135Z,5.30
2024-02-10T03:01:49.313Z,5.50
2024-02-10T03:02:49.605Z,5.00
2024-02-10T03:03:49.938Z,5.20
2024-02-10T03:04:50.157Z,5.40
2024-02-10T03:05:50.423Z,5.10
2024-02-10T03:06:50.704Z,5.50
2024-02-10T03:07:51.129Z,5.40
2024-02-10T03:08:51.219Z,5.10
2024-02-10T03:09:51.513Z,5.30
2024-02-10T03:10:51.732Z,5.50
2024-02-10T03:11:51.960Z,5.40
2024-02-10T03:12:52.217Z,5.70
2024-02-10T03:13:52.557Z,5.60
2024-02-10T03:14:52.789Z,5.30
2024-02-10T03:15:53.039Z,5.60
2024-02-10T03:16:53.354Z,5.70
2024-02-10T03:17:53.590Z,5.80
2024-02-10T03:18:53.880Z,5.80
2024-02-10T03:19:54.219Z,6.20
2024-02-10T03:20:54.422Z,5.60
2024-02-10T03:21:54.695Z,6.20
2024-02-10T03:22:55.005Z,6.20
2024-02-10T03:23:55.335Z,6.00
2024-02-10T03:24:55.464Z,5.90
2024-02-10T03:25:55.722Z,6.00
2024-02-10T03:26:55.990Z,6.10
2024-02-10T03:27:56.264Z,6.10
2024-02-10T03:28:56.605Z,6.20
2024-02-10T03:29:56.737Z,6.10
2024-02-10T03:30:57.014Z,5.80
2024-02-10T03:31:57.396Z,5.80
2024-02-10T03:32:57.968Z,6.20
2024-02-10T03:33:57.977Z,6.10
2024-02-10T03:34:58.234Z,6.20
2024-02-10T03:35:58.433Z,6.30
2024-02-10T03:36:58.731Z,6.20
2024-02-10T03:37:59.077Z,6.20
2024-02-10T03:38:59.331Z,6.20
2024-02-10T03:39:59.681Z,6.50
2024-02-10T03:40:59.952Z,6.40
2024-02-10T03:42:00.133Z,6.70
2024-02-10T03:43:00.409Z,6.50
2024-02-10T03:44:00.744Z,6.80
2024-02-10T03:45:01.091Z,6.70
2024-02-10T03:46:01.334Z,6.60
2024-02-10T03:47:01.507Z,6.60
2024-02-10T03:48:01.852Z,6.50
2024-02-10T03:49:02.235Z,6.90
2024-02-10T03:50:02.376Z,6.90
2024-02-10T03:51:02.800Z,6.80
2024-02-10T03:52:03.047Z,6.80
2024-02-10T03:53:03.361Z,7.00
2024-02-10T03:54:03.637Z,6.80
2024-02-10T03:55:04.807Z,6.80
2024-02-10T03:56:04.442Z,7.30
2024-02-10T03:57:04.470Z,6.90
2024-02-10T03:58:04.755Z,7.00
2024-02-10T03:59:05.054Z,6.90
2024-02-10T04:00:05.265Z,6.80
2024-02-10T04:01:05.548Z,6.80
2024-02-10T04:02:05.897Z,6.60
2024-02-10T04:03:06.158Z,6.90
2024-02-10T04:04:06.557Z,6.80
2024-02-10T04:05:06.803Z,7.10
2024-02-10T04:06:07.009Z,7.20
2024-02-10T04:07:07.385Z,7.40
2024-02-10T04:08:07.586Z,7.00
2024-02-10T04:09:08.831Z,6.90
2024-02-10T04:10:08.156Z,7.20
2024-02-10T04:11:08.523Z,7.40
2024-02-10T04:12:08.878Z,7.50
2024-02-10T04:13:09.196Z,7.10
2024-02-10T04:14:09.539Z,7.10
2024-02-10T04:15:09.729Z,6.90
2024-02-10T04:16:10.121Z,7.20
2024-02-10T04:17:10.250Z,7.30
2024-02-10T04:18:10.659Z,7.20
2024-02-10T04:19:10.789Z,7.20
2024-02-10T04:20:11.159Z,7.50
2024-02-10T04:21:11.338Z,7.70
2024-02-10T04:22:11.576Z,7.80
2024-02-10T04:23:11.836Z,7.60
2024-02-10T04:24:12.104Z,7.40
2024-02-10T04:25:12.345Z,7.70
2024-02-10T04:26:12.673Z,7.60
2024-02-10T04:27:12.952Z,7.60
2024-02-10T04:28:13.150Z,7.60
2024-02-10T04:29:13.479Z,7.60
2024-02-10T04:30:13.753Z,7.90
2024-02-10T04:31:14.102Z,8.00
2024-02-10T04:32:14.337Z,7.40
2024-02-10T04:33:14.658Z,7.90
2024-02-10T04:34:14.885Z,7.90
2024-02-10T04:35:15.222Z,7.50
2024-02-10T04:36:15.651Z,7.60
2024-02-10T04:37:15.864Z,7.80
2024-02-10T04:38:16.247Z,7.60
2024-02-10T04:39:16.367Z,8.10
2024-02-10T04:40:16.652Z,8.30
2024-02-10T04:41:16.964Z,7.70
2024-02-10T04:42:17.115Z,8.20
2024-02-10T04:43:18.542Z,8.70
2024-02-10T04:44:17.858Z,8.90
2024-02-10T04:45:18.093Z,9.10
2024-02-10T04:46:18.674Z,9.00
2024-02-10T04:47:18.668Z,9.00
2024-02-10T04:48:19.044Z,9.00
2024-02-10T04:49:19.305Z,9.40
2024-02-10T04:50:19.576Z,8.90
2024-02-10T04:51:19.811Z,9.20
2024-02-10T04:52:20.135Z,9.40
2024-02-10T04:53:20.447Z,9.00
2024-02-10T04:54:20.629Z,8.90
2024-02-10T04:55:20.985Z,9.70
2024-02-10T04:56:21.152Z,9.40
2024-02-10T04:57:21.411Z,9.30
2024-02-10T04:58:21.843Z,9.20
2024-02-10T04:59:22.040Z,9.90
2024-02-10T05:00:22.273Z,9.40
2024-02-10T05:01:22.568Z,9.00
2024-02-10T05:02:22.706Z,22.70
2024-02-10T05:03:23.021Z,13.10
2024-02-10T05:04:23.250Z,11.80
2024-02-10T05:05:23.678Z,11.10
2024-02-10T05:06:23.903Z,9.90
2024-02-10T05:07:24.210Z,9.80
2024-02-10T05:08:24.491Z,9.60
2024-02-10T05:09:24.778Z,9.00
2024-02-10T05:10:25.092Z,10.00
2024-02-10T05:11:25.698Z,9.70
2024-02-10T05:12:25.534Z,9.60
2024-02-10T05:13:25.808Z,9.70
2024-02-10T05:14:26.148Z,9.50
2024-02-10T05:15:26.476Z,9.20
2024-02-10T05:16:26.686Z,9.50
2024-02-10T05:17:26.942Z,9.40
2024-02-10T05:18:27.295Z,8.90
2024-02-10T05:19:27.610Z,9.40
2024-02-10T05:20:28.350Z,9.60
2024-02-10T05:21:27.983Z,9.80
2024-02-10T05:22:28.309Z,9.40
2024-02-10T05:23:28.546Z,9.50
2024-02-10T05:24:28.813Z,9.80
2024-02-10T05:25:29.272Z,9.90
2024-02-10T05:26:29.477Z,27.40
2024-02-10T05:27:29.727Z,13.00
2024-02-10T05:28:30.017Z,28.90
2024-02-10T05:29:30.324Z,10.30
2024-02-10T05:30:31.518Z,10.00
2024-02-10T05:31:31.244Z,10.10
2024-02-10T05:32:31.203Z,9.80
2024-02-10T05:33:31.460Z,10.10
2024-02-10T05:34:31.875Z,10.30
2024-02-10T05:35:31.948Z,10.10
2024-02-10T05:36:32.306Z,10.40
2024-02-10T05:37:32.581Z,10.50
2024-02-10T05:38:32.875Z,10.10
2024-02-10T05:39:33.129Z,10.30
2024-02-10T05:40:33.542Z,10.20
2024-02-10T05:41:33.726Z,9.90
2024-02-10T05:42:34.032Z,10.20
2024-02-10T05:43:34.287Z,10.20
2024-02-10T05:44:34.575Z,9.90
2024-02-10T05:45:35.175Z,11.90
2024-02-10T05:46:35.139Z,10.90
2024-02-10T05:47:35.459Z,10.50
2024-02-10T05:48:35.796Z,39.60
2024-02-10T05:49:36.028Z,10.60
2024-02-10T05:50:36.309Z,9.70
2024-02-10T05:51:36.543Z,10.00
2024-02-10T05:52:36.893Z,9.90
2024-02-10T05:53:37.023Z,9.90
2024-02-10T05:54:37.407Z,9.80
2024-02-10T05:55:37.706Z,9.60
2024-02-10T05:56:37.985Z,9.50
2024-02-10T05:57:38.184Z,10.00
2024-02-10T05:58:38.519Z,9.60
2024-02-10T05:59:38.694Z,9.70
2024-02-10T06:00:39.053Z,9.50
2024-02-10T06:01:39.299Z,9.50
2024-02-10T06:02:39.486Z,9.60
2024-02-10T06:03:39.791Z,9.60
2024-02-10T06:04:40.090Z,9.70
2024-02-10T06:05:40.982Z,9.80
2024-02-10T06:06:40.647Z,10.10
2024-02-10T06:07:40.937Z,9.80
2024-02-10T06:08:41.184Z,10.10
2024-02-10T06:09:41.437Z,10.40
2024-02-10T06:10:41.826Z,10.80
2024-02-10T06:11:41.968Z,10.60
2024-02-10T06:12:42.310Z,10.70
2024-02-10T06:13:42.613Z,10.80
2024-02-10T06:14:42.914Z,10.80
2024-02-10T06:15:43.204Z,10.70
2024-02-10T06:16:43.645Z,11.40
2024-02-10T06:17:44.005Z,11.10
2024-02-10T06:18:44.143Z,11.20
2024-02-10T06:19:44.449Z,10.90
2024-02-10T06:20:44.673Z,11.10
2024-02-10T06:21:44.906Z,11.40
2024-02-10T06:22:45.264Z,11.40
2024-02-10T06:23:45.569Z,11.60
2024-02-10T06:24:45.852Z,10.90
2024-02-10T06:25:46.245Z,14.20
2024-02-10T06:26:46.507Z,14.40
2024-02-10T06:27:47.177Z,12.90
2024-02-10T06:28:47.254Z,12.10
2024-02-10T06:29:47.316Z,11.50
2024-02-10T06:30:47.688Z,12.20
2024-02-10T06:31:47.902Z,11.60
2024-02-10T06:32:48.201Z,11.80
2024-02-10T06:33:49.421Z,11.80
2024-02-10T06:34:48.846Z,11.80
2024-02-10T06:35:49.207Z,11.60
2024-02-10T06:36:49.445Z,11.90
2024-02-10T06:37:49.850Z,12.00
2024-02-10T06:38:50.580Z,12.40
2024-02-10T06:39:50.426Z,12.10
2024-02-10T06:40:50.941Z,12.80
2024-02-10T06:41:50.990Z,12.30
2024-02-10T06:42:51.328Z,11.70
2024-02-10T06:43:51.494Z,12.10
2024-02-10T06:44:51.800Z,12.00
2024-02-10T06:45:52.000Z,12.20
2024-02-10T06:46:52.342Z,11.90
2024-02-10T06:47:52.978Z,12.10
2024-02-10T06:48:53.030Z,11.50
2024-02-10T06:49:53.353Z,11.60
2024-02-10T06:50:53.702Z,11.30
2024-02-10T06:51:53.956Z,11.20
2024-02-10T06:52:54.791Z,11.50
2024-02-10T06:53:54.630Z,12.10
2024-02-10T06:54:54.932Z,12.00
2024-02-10T06:55:55.723Z,12.10
2024-02-10T06:56:55.605Z,12.50
2024-02-10T06:57:55.927Z,13.10
2024-02-10T06:58:56.189Z,13.00
2024-02-10T06:59:56.352Z,13.00
2024-02-10T07:00:56.762Z,13.00
2024-02-10T07:01:56.972Z,13.10
2024-02-10T07:02:57.247Z,13.40
2024-02-10T07:03:57.470Z,13.90
2024-02-10T07:04:57.909Z,14.00
2024-02-10T07:05:58.407Z,14.20
2024-02-10T07:06:58.477Z,14.70
2024-02-10T07:07:58.740Z,15.00
2024-02-10T07:08:58.979Z,15.10
2024-02-10T07:09:59.292Z,15.40
2024-02-10T07:10:59.628Z,14.60
2024-02-10T07:11:59.709Z,15.20
2024-02-10T07:13:02.462Z,15.30
2024-02-10T07:14:00.421Z,15.40
2024-02-10T07:15:00.668Z,15.50
2024-02-10T07:16:00.885Z,14.70
2024-02-10T07:17:01.215Z,14.80
2024-02-10T07:18:01.619Z,14.20
2024-02-10T07:19:01.905Z,14.80
2024-02-10T07:20:02.210Z,16.40
2024-02-10T07:21:02.343Z,15.20
2024-02-10T07:22:02.669Z,16.20
2024-02-10T07:23:03.092Z,15.50
2024-02-10T07:24:03.227Z,15.80
2024-02-10T07:25:03.579Z,16.00
2024-02-10T07:26:03.857Z,16.80
2024-02-10T07:27:04.224Z,16.40
2024-02-10T07:28:04.439Z,16.70
2024-02-10T07:29:04.776Z,16.00
2024-02-10T07:30:05.921Z,15.40
2024-02-10T07:31:05.365Z,16.00
2024-02-10T07:32:05.609Z,16.60
2024-02-10T07:33:05.943Z,16.70
2024-02-10T07:34:06.246Z,17.60
2024-02-10T07:35:06.480Z,17.50
2024-02-10T07:36:06.741Z,18.30
2024-02-10T07:37:06.936Z,18.10
2024-02-10T07:38:07.283Z,17.30
2024-02-10T07:39:07.496Z,17.00
2024-02-10T07:40:07.713Z,16.50
2024-02-10T07:41:08.194Z,18.10
2024-02-10T07:42:08.238Z,18.10
2024-02-10T07:43:08.585Z,18.90
2024-02-10T07:44:08.859Z,17.80
2024-02-10T07:45:09.212Z,17.60
2024-02-10T07:46:09.591Z,18.00
2024-02-10T07:47:09.875Z,17.60
2024-02-10T07:48:10.376Z,17.70
2024-02-10T07:49:10.452Z,17.80
2024-02-10T07:50:10.710Z,17.70
2024-02-10T07:51:11.155Z,17.30
2024-02-10T07:52:11.360Z,17.00
2024-02-10T07:53:11.709Z,16.90
2024-02-10T07:54:11.869Z,16.70
2024-02-10T07:55:12.329Z,17.40
2024-02-10T07:56:12.568Z,16.90
2024-02-10T07:57:12.865Z,17.10
2024-02-10T07:58:14.022Z,16.70
2024-02-10T07:59:13.556Z,17.10
2024-02-10T08:00:13.661Z,17.70
2024-02-10T08:01:14.088Z,17.50
2024-02-10T08:02:14.270Z,22.10
2024-02-10T08:03:14.629Z,20.80
2024-02-10T08:04:14.914Z,17.00
2024-02-10T08:05:16.903Z,16.40
2024-02-10T08:06:15.649Z,15.80
2024-02-10T08:07:15.813Z,16.20
2024-02-10T08:08:16.122Z,16.30
2024-02-10T08:09:16.515Z,15.90
2024-02-10T08:10:16.720Z,15.80
2024-02-10T08:11:17.084Z,15.10
2024-02-10T08:12:17.257Z,14.50
2024-02-10T08:13:17.637Z,15.60
2024-02-10T08:14:17.787Z,16.20
2024-02-10T08:15:18.147Z,16.50
2024-02-10T08:16:18.405Z,15.90
2024-02-10T08:17:18.581Z,16.40
2024-02-10T08:18:18.993Z,15.90
2024-02-10T08:19:19.260Z,15.70
2024-02-10T08:20:20.382Z,16.20
2024-02-10T08:21:19.865Z,16.50
2024-02-10T08:22:20.280Z,16.70
2024-02-10T08:23:20.434Z,16.90
2024-02-10T08:24:20.592Z,17.90
2024-02-10T08:25:21.000Z,17.70
2024-02-10T08:26:21.190Z,17.50
2024-02-10T08:27:21.530Z,17.70
2024-02-10T08:28:21.753Z,18.10
2024-02-10T08:29:22.104Z,18.50
2024-02-10T08:30:22.263Z,18.50
2024-02-10T08:31:23.087Z,17.30
2024-02-10T08:32:23.468Z,18.20
2024-02-10T08:33:23.207Z,18.50
2024-02-10T08:34:23.476Z,17.80
2024-02-10T08:35:23.682Z,18.50
2024-02-10T08:36:24.047Z,18.20
2024-02-10T08:37:24.263Z,18.20
2024-02-10T08:38:24.571Z,17.90
2024-02-10T08:39:24.883Z,17.60
2024-02-10T08:40:25.266Z,17.30
2024-02-10T08:41:25.594Z,17.80
2024-02-10T08:42:25.818Z,17.60
2024-02-10T08:43:26.155Z,18.40
2024-02-10T08:44:26.470Z,17.90
2024-02-10T08:45:26.898Z,17.50
2024-02-10T08:46:27.623Z,17.90
2024-02-10T08:47:27.385Z,17.20
2024-02-10T08:48:27.706Z,16.70
2024-02-10T08:49:27.975Z,16.30
2024-02-10T08:50:28.298Z,16.60
2024-02-10T08:51:28.601Z,16.50
2024-02-10T08:52:28.939Z,16.80
2024-02-10T08:53:29.137Z,15.90
2024-02-10T08:54:29.473Z,15.70
2024-02-10T08:55:29.948Z,16.20
2024-02-10T08:56:30.141Z,15.50
2024-02-10T08:57:31.473Z,16.30
2024-02-10T08:58:30.766Z,15.50
2024-02-10T08:59:32.042Z,15.80
2024-02-10T09:00:31.371Z,15.60
2024-02-10T09:01:31.742Z,15.30
2024-02-10T09:02:31.950Z,15.80
2024-02-10T09:03:32.236Z,15.90
2024-02-10T09:04:32.424Z,16.10
2024-02-10T09:05:32.741Z,16.60
2024-02-10T09:06:33.994Z,17.30
2024-02-10T09:07:33.264Z,16.70
2024-02-10T09:08:33.541Z,16.30
2024-02-10T09:09:33.708Z,16.30
2024-02-10T09:10:34.200Z,15.80
2024-02-10T09:11:34.392Z,15.60
2024-02-10T09:12:35.557Z,15.80
2024-02-10T09:13:35.001Z,15.40
2024-02-10T09:14:35.304Z,15.20
2024-02-10T09:15:35.472Z,15.10
2024-02-10T09:16:35.690Z,15.40
2024-02-10T09:17:36.852Z,15.10
2024-02-10T09:18:36.264Z,14.90
2024-02-10T09:19:37.025Z,15.00
2024-02-10T09:20:36.807Z,15.30
2024-02-10T09:21:37.205Z,14.50
2024-02-10T09:22:37.454Z,15.20
2024-02-10T09:23:37.649Z,15.80
2024-02-10T09:24:38.902Z,14.50
2024-02-10T09:25:38.505Z,13.40
2024-02-10T09:26:39.434Z,13.00
2024-02-10T09:27:38.885Z,12.40
2024-02-10T09:28:39.283Z,13.20
2024-02-10T09:29:39.647Z,13.00
2024-02-10T09:30:39.783Z,12.60
2024-02-10T09:31:40.238Z,12.40
2024-02-10T09:32:40.400Z,12.30
2024-02-10T09:33:40.991Z,12.00
2024-02-10T09:34:41.017Z,14.00
2024-02-10T09:35:42.126Z,13.00
2024-02-10T09:36:41.650Z,12.70
2024-02-10T09:37:42.119Z,12.70
2024-02-10T09:38:42.279Z,13.60
2024-02-10T09:39:42.509Z,12.20
2024-02-10T09:40:42.727Z,11.80
2024-02-10T09:41:43.152Z,11.00
2024-02-10T09:42:43.299Z,10.60
2024-02-10T09:43:43.774Z,11.50
2024-02-10T09:44:43.905Z,10.40
2024-02-10T09:45:44.289Z,9.80
2024-02-10T09:46:44.665Z,9.50
2024-02-10T09:47:45.395Z,9.00
2024-02-10T09:48:45.231Z,9.10
2024-02-10T09:49:45.607Z,9.10
2024-02-10T09:50:45.884Z,8.70
2024-02-10T09:51:46.372Z,8.40
2024-02-10T09:52:46.557Z,8.10
2024-02-10T09:53:46.941Z,8.00
2024-02-10T09:54:47.072Z,8.80
2024-02-10T09:55:47.542Z,9.30
2024-02-10T09:56:47.708Z,9.40
2024-02-10T09:57:48.124Z,9.20
2024-02-10T09:58:48.339Z,9.10
2024-02-10T09:59:48.505Z,8.50
2024-02-10T10:00:48.896Z,13.80
2024-02-10T10:01:49.284Z,13.20
2024-02-10T10:02:49.400Z,13.90
2024-02-10T10:03:49.782Z,13.90
2024-02-10T10:04:50.025Z,18.10
2024-02-10T10:05:50.305Z,14.60
2024-02-10T10:06:50.605Z,13.40
2024-02-10T10:07:51.311Z,13.50
2024-02-10T10:08:51.034Z,13.50
2024-02-10T10:09:51.338Z,13.60
2024-02-10T10:10:51.735Z,13.30
2024-02-10T10:11:52.918Z,12.60
2024-02-10T10:12:52.294Z,11.50
2024-02-10T10:13:52.714Z,11.50
2024-02-10T10:14:53.825Z,11.10
2024-02-10T10:15:53.170Z,12.10
2024-02-10T10:16:53.394Z,11.80
2024-02-10T10:17:53.867Z,11.60
2024-02-10T10:18:54.069Z,11.40
2024-02-10T10:19:54.248Z,11.20
2024-02-10T10:20:54.631Z,11.80
2024-02-10T10:21:54.802Z,11.80
2024-02-10T10:22:55.201Z,12.80
2024-02-10T10:23:55.409Z,13.40
2024-02-10T10:24:55.764Z,16.70
2024-02-10T10:25:56.022Z,19.10
2024-02-10T10:26:56.238Z,21.20
2024-02-10T10:27:56.543Z,25.00
2024-02-10T10:28:56.825Z,24.80
2024-02-10T10:29:57.041Z,25.50
2024-02-10T10:30:57.252Z,26.20
2024-02-10T10:31:57.763Z,24.30
2024-02-10T10:32:57.906Z,25.80
2024-02-10T10:33:58.205Z,24.20
2024-02-10T10:34:58.391Z,25.40
2024-02-10T10:35:58.743Z,24.60
2024-02-10T10:37:01.797Z,25.30
2024-02-10T10:37:59.386Z,24.90
2024-02-10T10:38:59.543Z,25.70
2024-02-10T10:39:59.860Z,26.00
2024-02-10T10:41:00.312Z,24.00
2024-02-10T10:42:00.464Z,28.30
2024-02-10T10:43:00.795Z,26.20
2024-02-10T10:44:01.147Z,25.50
2024-02-10T10:45:01.351Z,25.70
2024-02-10T10:46:01.811Z,24.90
2024-02-10T10:47:02.002Z,22.40
2024-02-10T10:48:02.391Z,24.80
2024-02-10T10:49:02.565Z,25.30
2024-02-10T10:50:02.863Z,24.70
2024-02-10T10:51:03.159Z,24.60
2024-02-10T10:52:03.779Z,24.80
2024-02-10T10:53:03.749Z,24.70
2024-02-10T10:54:03.935Z,24.00
2024-02-10T10:55:04.166Z,23.20
2024-02-10T10:56:05.171Z,23.20
2024-02-10T10:57:04.842Z,23.00
2024-02-10T10:58:05.388Z,24.20
2024-02-10T10:59:05.432Z,23.70
2024-02-10T11:00:05.762Z,23.20
2024-02-10T11:01:06.388Z,23.50
2024-02-10T11:02:08.934Z,21.60
2024-02-10T11:03:06.761Z,21.90
2024-02-10T11:04:07.077Z,22.80
2024-02-10T11:05:07.434Z,23.40
2024-02-10T11:06:07.632Z,24.10
2024-02-10T11:07:07.808Z,24.00
2024-02-10T11:08:08.223Z,24.60
2024-02-10T11:09:08.382Z,25.20
2024-02-10T11:10:08.725Z,22.10
2024-02-10T11:11:09.551Z,23.30
2024-02-10T11:12:09.336Z,20.90
2024-02-10T11:13:10.190Z,20.90
2024-02-10T11:14:09.907Z,18.90
2024-02-10T11:15:10.156Z,18.10
2024-02-10T11:16:10.340Z,18.20
2024-02-10T11:17:10.747Z,18.30
2024-02-10T11:18:11.513Z,16.30
2024-02-10T11:19:12.867Z,16.20
2024-02-10T11:20:11.688Z,17.60
2024-02-10T11:21:11.712Z,16.70
2024-02-10T11:22:12.026Z,16.60
2024-02-10T11:23:12.395Z,16.70
2024-02-10T11:24:14.040Z,15.40
2024-02-10T11:25:17.428Z,14.90
2024-02-10T11:26:14.368Z,14.40
2024-02-10T11:27:13.500Z,13.40
2024-02-10T11:28:13.889Z,13.70
2024-02-10T11:29:14.202Z,13.10
2024-02-10T11:30:14.395Z,13.10
2024-02-10T11:31:14.647Z,12.70
2024-02-10T11:32:14.982Z,12.70
2024-02-10T11:33:15.214Z,12.90
2024-02-10T11:34:15.734Z,12.50
2024-02-10T11:35:15.745Z,13.20
2024-02-10T11:36:16.069Z,12.80
2024-02-10T11:37:16.438Z,13.00
2024-02-10T11:38:16.868Z,12.20
2024-02-10T11:39:17.049Z,12.90
2024-02-10T11:40:17.535Z,13.80
2024-02-10T11:41:17.656Z,14.50
2024-02-10T11:42:17.886Z,15.40
2024-02-10T11:43:19.103Z,16.30
2024-02-10T11:44:18.419Z,22.80
2024-02-10T11:45:19.018Z,16.00
2024-02-10T11:46:19.033Z,14.70
2024-02-10T11:47:19.292Z,14.70
2024-02-10T11:48:19.672Z,14.50
2024-02-10T11:49:19.829Z,14.10
2024-02-10T11:50:20.062Z,13.30
2024-02-10T11:51:20.269Z,13.60
2024-02-10T11:52:20.712Z,13.10
2024-02-10T11:53:20.965Z,13.90
2024-02-10T11:54:21.109Z,13.70
2024-02-10T11:55:21.566Z,12.70
2024-02-10T11:56:21.791Z,12.50
2024-02-10T11:57:22.025Z,12.30
2024-02-10T11:58:22.266Z,12.30
2024-02-10T11:59:22.496Z,12.40
2024-02-10T12:00:22.738Z,12.50
2024-02-10T12:01:23.108Z,12.90
2024-02-10T12:02:23.342Z,13.00
2024-02-10T12:03:23.534Z,13.10
2024-02-10T12:04:23.906Z,13.40
2024-02-10T12:05:25.151Z,14.20
2024-02-10T12:06:26.093Z,13.60
2024-02-10T12:07:24.705Z,13.50
2024-02-10T12:08:24.902Z,14.30
2024-02-10T12:09:25.227Z,14.20
2024-02-10T12:10:25.525Z,14.50
2024-02-10T12:11:25.712Z,14.20
2024-02-10T12:12:25.903Z,14.20
2024-02-10T12:13:26.497Z,14.20
2024-02-10T12:14:26.592Z,14.30
2024-02-10T12:15:26.783Z,14.90
2024-02-10T12:16:27.238Z,15.00
2024-02-10T12:17:27.380Z,14.20
2024-02-10T12:18:27.726Z,14.50
2024-02-10T12:19:28.053Z,14.50
2024-02-10T12:20:28.335Z,14.60
2024-02-10T12:21:28.642Z,14.60
2024-02-10T12:22:29.176Z,14.40
2024-02-10T12:23:29.286Z,15.30
2024-02-10T12:24:29.665Z,15.40
2024-02-10T12:25:29.891Z,13.90
2024-02-10T12:26:30.322Z,13.90
2024-02-10T12:27:30.498Z,14.80
2024-02-10T12:28:30.842Z,14.40
2024-02-10T12:29:31.038Z,14.10
2024-02-10T12:30:31.492Z,13.20
2024-02-10T12:31:31.694Z,13.50
2024-02-10T12:32:32.007Z,13.40
2024-02-10T12:33:32.347Z,12.50
2024-02-10T12:34:32.539Z,12.40
2024-02-10T12:35:32.866Z,12.70
2024-02-10T12:36:33.196Z,12.60
2024-02-10T12:37:33.537Z,14.40
2024-02-10T12:38:33.908Z,13.90
2024-02-10T12:39:34.077Z,13.20
2024-02-10T12:40:34.392Z,12.50
2024-02-10T12:41:34.598Z,12.20
2024-02-10T12:42:35.742Z,13.00
2024-02-10T12:43:35.150Z,14.50
2024-02-10T12:44:35.398Z,12.60
2024-02-10T12:45:35.584Z,12.10
2024-02-10T12:46:35.977Z,12.50
2024-02-10T12:47:36.181Z,12.60
2024-02-10T12:48:36.644Z,16.10
2024-02-10T12:49:36.893Z,13.90
2024-02-10T12:50:37.174Z,14.40
2024-02-10T12:51:37.301Z,14.30
2024-02-10T12:52:37.691Z,13.90
2024-02-10T12:53:38.013Z,12.90
2024-02-10T12:54:38.289Z,12.60
2024-02-10T12:55:38.507Z,12.50
2024-02-10T12:56:39.649Z,12.50
2024-02-10T12:57:39.111Z,13.20
2024-02-10T12:58:39.435Z,13.20
2024-02-10T12:59:39.783Z,13.50
2024-02-10T13:00:40.083Z,13.30
2024-02-10T13:01:40.252Z,15.20
2024-02-10T13:02:40.532Z,15.10
2024-02-10T13:03:40.887Z,14.60
2024-02-10T13:04:41.549Z,15.20
2024-02-10T13:05:41.569Z,13.60
2024-02-10T13:06:42.241Z,14.20
2024-02-10T13:07:42.207Z,14.60